createdAt,value
2018-02-07T00:01:02.344Z,99847.34
2018-02-07T00:03:30.728Z,99841.56
2018-02-07T00:05:59.203Z,99842.88
2018-02-07T00:08:27.606Z,99840.84
2018-02-07T00:10:56.008Z,99838.16
2018-02-07T00:13:24.447Z,99839.72
2018-02-07T00:15:52.846Z,99839.80
2018-02-07T00:18:21.236Z,99837.41
2018-02-07T00:20:49.661Z,99839.00
2018-02-07T00:23:18.075Z,99835.53
2018-02-07T00:25:46.470Z,99834.55
2018-02-07T00:28:14.909Z,99824.55
2018-02-07T00:30:43.327Z,99825.98
2018-02-07T00:33:11.761Z,99829.17
2018-02-07T00:35:40.219Z,99834.52
2018-02-07T00:38:08.609Z,99829.52
2018-02-07T00:40:37.007Z,99830.91
2018-02-07T00:43:05.452Z,99833.84
2018-02-07T00:45:33.865Z,99832.52
2018-02-07T00:48:02.260Z,99844.33
2018-02-07T00:50:30.749Z,99844.53
2018-02-07T00:52:59.141Z,99854.52
2018-02-07T00:55:27.539Z,99857.66
2018-02-07T00:57:55.969Z,99857.02
2018-02-07T01:00:24.365Z,99857.64
2018-02-07T01:02:52.753Z,99849.66
2018-02-07T01:05:21.182Z,99858.77
2018-02-07T01:07:49.605Z,99862.63
2018-02-07T01:10:18.017Z,99855.13
2018-02-07T01:12:46.483Z,99854.23
2018-02-07T01:15:14.888Z,99856.54
2018-02-07T01:17:43.306Z,99852.93
2018-02-07T01:20:11.761Z,99854.98
2018-02-07T01:22:40.169Z,99856.63
2018-02-07T01:25:08.571Z,99852.25
2018-02-07T01:27:37.030Z,99856.73
2018-02-07T01:30:05.418Z,99854.23
2018-02-07T01:32:33.816Z,99862.04
2018-02-07T01:35:02.361Z,99862.27
2018-02-07T01:37:30.793Z,99864.68
2018-02-07T01:39:59.193Z,99866.30
2018-02-07T01:42:27.656Z,99868.23
2018-02-07T01:44:56.073Z,99866.47
2018-02-07T01:47:24.466Z,99872.24
2018-02-07T01:49:52.912Z,99872.22
2018-02-07T01:52:21.301Z,99871.86
2018-02-07T01:54:49.688Z,99869.41
2018-02-07T01:57:18.125Z,99869.20
2018-02-07T01:59:46.534Z,99867.38
2018-02-07T02:02:14.952Z,99860.85
2018-02-07T02:04:43.405Z,99866.55
2018-02-07T02:07:11.797Z,99866.44
2018-02-07T02:09:40.213Z,99861.01
2018-02-07T02:12:08.688Z,99857.78
2018-02-07T02:14:37.100Z,99855.57
2018-02-07T02:17:05.494Z,99857.30
2018-02-07T02:19:33.957Z,99853.70
2018-02-07T02:22:02.365Z,99857.48
2018-02-07T02:24:30.781Z,99860.94
2018-02-07T02:26:59.294Z,99862.33
2018-02-07T02:29:27.665Z,99856.05
2018-02-07T02:31:56.054Z,99861.96
2018-02-07T02:34:24.496Z,99860.05
2018-02-07T02:36:52.904Z,99863.92
2018-02-07T02:39:21.311Z,99855.89
2018-02-07T02:41:49.768Z,99855.02
2018-02-07T02:44:18.172Z,99854.26
2018-02-07T02:46:46.576Z,99857.01
2018-02-07T02:49:15.032Z,99854.38
2018-02-07T02:51:43.421Z,99852.66
2018-02-07T02:54:11.822Z,99854.67
2018-02-07T02:56:40.261Z,99847.95
2018-02-07T02:59:08.642Z,99854.35
2018-02-07T03:01:37.048Z,99856.08
2018-02-07T03:04:05.485Z,99856.58
2018-02-07T03:06:33.893Z,99848.77
2018-02-07T03:09:02.306Z,99850.81
2018-02-07T03:11:30.978Z,99845.75
2018-02-07T03:13:59.375Z,99836.83
2018-02-07T03:16:27.782Z,99841.00
2018-02-07T03:18:56.235Z,99843.32
2018-02-07T03:21:24.643Z,99847.16
2018-02-07T03:23:53.037Z,99854.78
2018-02-07T03:26:21.480Z,99852.12
2018-02-07T03:28:49.871Z,99847.77
2018-02-07T03:31:18.258Z,99841.91
2018-02-07T03:33:46.710Z,99845.66
2018-02-07T03:36:15.118Z,99847.13
2018-02-07T03:38:43.528Z,99850.33
2018-02-07T03:41:12.015Z,99847.23
2018-02-07T03:43:40.398Z,99851.48
2018-02-07T03:46:08.802Z,99858.59
2018-02-07T03:48:37.253Z,99858.20
2018-02-07T03:51:05.642Z,99844.70
2018-02-07T03:53:34.039Z,99857.86
2018-02-07T03:56:02.506Z,99858.28
2018-02-07T03:58:30.892Z,99869.80
2018-02-07T04:00:59.286Z,99868.41
2018-02-07T04:03:27.715Z,99866.97
2018-02-07T04:05:56.120Z,99863.73
2018-02-07T04:08:24.568Z,99864.77
2018-02-07T04:10:53.036Z,99869.20
2018-02-07T04:13:21.437Z,99867.72
2018-02-07T04:15:49.839Z,99876.81
2018-02-07T04:18:18.290Z,99883.17
2018-02-07T04:20:46.692Z,99877.39
2018-02-07T04:23:15.108Z,99877.62
2018-02-07T04:25:43.533Z,99874.13
2018-02-07T04:28:11.935Z,99875.23
2018-02-07T04:30:40.348Z,99878.73
2018-02-07T04:33:08.798Z,99874.08
2018-02-07T04:35:37.207Z,99874.38
2018-02-07T04:38:05.614Z,99874.85
2018-02-07T04:40:34.046Z,99881.95
2018-02-07T04:43:02.456Z,99881.56
2018-02-07T04:45:30.864Z,99888.34
2018-02-07T04:47:59.331Z,99884.41
2018-02-07T04:50:27.736Z,99878.73
2018-02-07T04:52:56.141Z,99878.24
2018-02-07T04:55:24.585Z,99884.41
2018-02-07T04:57:52.969Z,99882.73
2018-02-07T05:00:21.372Z,99875.41
2018-02-07T05:02:49.820Z,99880.06
2018-02-07T05:05:18.224Z,99883.88
2018-02-07T05:07:46.628Z,99876.40
2018-02-07T05:10:15.077Z,99875.73
2018-02-07T05:12:43.465Z,99876.00
2018-02-07T05:15:11.870Z,99871.78
2018-02-07T05:17:40.306Z,99875.12
2018-02-07T05:20:08.723Z,99873.57
2018-02-07T05:22:37.121Z,99873.72
2018-02-07T05:25:05.561Z,99884.92
2018-02-07T05:27:33.988Z,99882.75
2018-02-07T05:30:02.385Z,99881.34
2018-02-07T05:32:30.857Z,99883.58
2018-02-07T05:34:59.263Z,99885.78
2018-02-07T05:37:27.649Z,99888.14
2018-02-07T05:39:56.090Z,99888.41
2018-02-07T05:42:24.493Z,99895.80
2018-02-07T05:44:52.882Z,99891.70
2018-02-07T05:47:21.313Z,99895.08
2018-02-07T05:49:49.767Z,99896.27
2018-02-07T05:52:18.156Z,99901.64
2018-02-07T05:54:46.615Z,99902.14
2018-02-07T05:57:15.010Z,99892.20
2018-02-07T05:59:43.416Z,99891.44
2018-02-07T06:02:11.849Z,99893.36
2018-02-07T06:04:40.242Z,99898.08
2018-02-07T06:07:08.682Z,99899.31
2018-02-07T06:09:37.324Z,99901.48
2018-02-07T06:12:05.770Z,99896.08
2018-02-07T06:14:34.166Z,99891.22
2018-02-07T06:17:02.627Z,99892.64
2018-02-07T06:19:31.033Z,99896.36
2018-02-07T06:21:59.424Z,99897.18
2018-02-07T06:24:27.872Z,99889.72
2018-02-07T06:26:56.262Z,99890.21
2018-02-07T06:29:24.667Z,99894.68
2018-02-07T06:31:53.125Z,99904.22
2018-02-07T06:34:21.527Z,99902.56
2018-02-07T06:36:49.933Z,99903.13
2018-02-07T06:39:18.380Z,99909.51
2018-02-07T06:41:46.829Z,99914.58
2018-02-07T06:44:15.226Z,99921.32
2018-02-07T06:46:43.662Z,99922.13
2018-02-07T06:49:12.081Z,99922.72
2018-02-07T06:51:40.474Z,99927.43
2018-02-07T06:54:08.896Z,99933.21
2018-02-07T06:56:37.287Z,99933.72
2018-02-07T06:59:05.678Z,99941.86
2018-02-07T07:01:34.114Z,99946.31
2018-02-07T07:04:02.507Z,99949.77
2018-02-07T07:06:30.936Z,99956.86
2018-02-07T07:08:59.376Z,99962.89
2018-02-07T07:11:27.758Z,99966.70
2018-02-07T07:13:56.192Z,99969.63
2018-02-07T07:16:24.659Z,99967.81
2018-02-07T07:18:53.076Z,99963.66
2018-02-07T07:21:21.482Z,99966.08
2018-02-07T07:23:49.929Z,99970.67
2018-02-07T07:26:18.375Z,99970.04
2018-02-07T07:28:46.772Z,99974.61
2018-02-07T07:31:15.216Z,99976.40
2018-02-07T07:33:43.614Z,99973.77
2018-02-07T07:36:12.028Z,99967.95
2018-02-07T07:38:40.473Z,99969.36
2018-02-07T07:41:08.866Z,99963.50
2018-02-07T07:43:37.258Z,99961.78
2018-02-07T07:46:05.698Z,99963.91
2018-02-07T07:48:34.089Z,99964.70
2018-02-07T07:51:02.502Z,99966.59
2018-02-07T07:53:30.965Z,99963.81
2018-02-07T07:55:59.353Z,99967.84
2018-02-07T07:58:27.752Z,99965.60
2018-02-07T08:00:56.202Z,99970.34
2018-02-07T08:03:24.603Z,99973.80
2018-02-07T08:05:52.993Z,99969.78
2018-02-07T08:08:21.421Z,99972.47
2018-02-07T08:10:49.821Z,99975.68
2018-02-07T08:13:18.236Z,99977.41
2018-02-07T08:15:46.681Z,99976.42
2018-02-07T08:18:15.087Z,99974.31
2018-02-07T08:20:43.492Z,99973.98
2018-02-07T08:23:11.941Z,99979.82
2018-02-07T08:25:40.353Z,99976.09
2018-02-07T08:28:08.741Z,99976.27
2018-02-07T08:30:37.209Z,99977.81
2018-02-07T08:33:05.618Z,99974.59
2018-02-07T08:35:34.020Z,99976.09
2018-02-07T08:38:02.461Z,99977.87
2018-02-07T08:40:30.869Z,99973.87
2018-02-07T08:42:59.309Z,99970.63
2018-02-07T08:45:27.762Z,99979.00
2018-02-07T08:47:56.150Z,99978.67
2018-02-07T08:50:24.552Z,99986.34
2018-02-07T08:52:53.016Z,99988.67
2018-02-07T08:55:21.423Z,99981.20
2018-02-07T08:57:49.824Z,99983.86
2018-02-07T09:00:18.268Z,99982.92
2018-02-07T09:02:46.666Z,99981.70
2018-02-07T09:05:15.053Z,99978.06
2018-02-07T09:07:43.507Z,99975.34
2018-02-07T09:10:11.902Z,99980.08
2018-02-07T09:12:40.308Z,99975.38
2018-02-07T09:15:08.750Z,99981.20
2018-02-07T09:17:37.142Z,99983.80
2018-02-07T09:20:05.552Z,99983.42
2018-02-07T09:22:33.985Z,99988.13
2018-02-07T09:25:02.393Z,99994.13
2018-02-07T09:27:30.786Z,100000.25
2018-02-07T09:29:59.241Z,100006.32
2018-02-07T09:32:27.647Z,100007.45
2018-02-07T09:34:56.053Z,100010.26
2018-02-07T09:37:24.499Z,100016.70
2018-02-07T09:39:52.891Z,100022.14
2018-02-07T09:42:21.290Z,100024.71
2018-02-07T09:44:49.754Z,100030.17
2018-02-07T09:47:18.154Z,100034.77
2018-02-07T09:49:46.545Z,100031.77
2018-02-07T09:52:14.991Z,100034.92
2018-02-07T09:54:43.390Z,100041.70
2018-02-07T09:57:11.785Z,100045.23
2018-02-07T09:59:40.235Z,100040.15
2018-02-07T10:02:09.334Z,100043.05
2018-02-07T10:04:37.763Z,100039.52
2018-02-07T10:07:06.218Z,100041.95
2018-02-07T10:09:34.612Z,100047.00
2018-02-07T10:12:03.021Z,100044.92
2018-02-07T10:14:31.478Z,100045.60
2018-02-07T10:16:59.878Z,100056.34
2018-02-07T10:19:28.266Z,100050.06
2018-02-07T10:21:56.732Z,100052.86
2018-02-07T10:24:25.120Z,100063.98
2018-02-07T10:26:53.532Z,100063.70
2018-02-07T10:29:22.001Z,100066.69
2018-02-07T10:31:50.403Z,100076.44
2018-02-07T10:34:18.804Z,100073.81
2018-02-07T10:36:47.241Z,100079.94
2018-02-07T10:39:15.623Z,100083.00
2018-02-07T10:41:44.017Z,100079.64
2018-02-07T10:44:12.505Z,100081.19
2018-02-07T10:46:40.907Z,100086.29
2018-02-07T10:49:09.298Z,100079.05
2018-02-07T10:51:37.725Z,100077.53
2018-02-07T10:54:06.128Z,100078.66
2018-02-07T10:56:34.521Z,100077.17
2018-02-07T10:59:02.988Z,100073.63
2018-02-07T11:01:31.396Z,100072.13
2018-02-07T11:03:59.805Z,100071.27
2018-02-07T11:06:28.252Z,100073.89
2018-02-07T11:08:56.660Z,100083.50
2018-02-07T11:11:25.072Z,100080.48
2018-02-07T11:13:53.633Z,100076.16
2018-02-07T11:16:22.040Z,100078.20
2018-02-07T11:18:50.444Z,100079.73
2018-02-07T11:21:18.892Z,100070.13
2018-02-07T11:23:47.299Z,100071.47
2018-02-07T11:26:15.698Z,100067.42
2018-02-07T11:28:44.147Z,100062.98
2018-02-07T11:31:12.542Z,100064.58
2018-02-07T11:33:40.937Z,100060.34
2018-02-07T11:36:09.388Z,100056.84
2018-02-07T11:38:37.790Z,100058.16
2018-02-07T11:41:06.204Z,100062.39
2018-02-07T11:43:34.645Z,100068.70
2018-02-07T11:46:03.034Z,100062.49
2018-02-07T11:48:31.435Z,100063.98
2018-02-07T11:50:59.876Z,100056.25
2018-02-07T11:53:28.269Z,100049.02
2018-02-07T11:55:56.663Z,100051.64
2018-02-07T11:58:25.099Z,100055.20
2018-02-07T12:00:53.504Z,100045.72
2018-02-07T12:03:21.918Z,100053.28
2018-02-07T12:05:50.353Z,100050.61
2018-02-07T12:08:18.764Z,100055.45
2018-02-07T12:10:47.170Z,100058.89
2018-02-07T12:13:15.627Z,100051.22
2018-02-07T12:15:44.030Z,100060.88
2018-02-07T12:18:12.444Z,100057.23
2018-02-07T12:20:40.906Z,100055.76
2018-02-07T12:23:09.294Z,100049.20
2018-02-07T12:25:37.709Z,100048.52
2018-02-07T12:28:06.188Z,100045.72
2018-02-07T12:30:34.672Z,100048.36
2018-02-07T12:33:03.083Z,100044.97
2018-02-07T12:35:31.540Z,100042.92
2018-02-07T12:37:59.978Z,100046.93
2018-02-07T12:40:28.382Z,100043.46
2018-02-07T12:42:56.819Z,100048.78
2018-02-07T12:45:25.213Z,100040.59
2018-02-07T12:47:53.630Z,100042.58
2018-02-07T12:50:22.090Z,100038.22
2018-02-07T12:52:50.489Z,100045.50
2018-02-07T12:55:18.882Z,100047.80
2018-02-07T12:57:47.323Z,100046.55
2018-02-07T13:00:15.728Z,100038.32
2018-02-07T13:02:44.118Z,100038.09
2018-02-07T13:05:12.563Z,100039.27
2018-02-07T13:07:41.000Z,100036.78
2018-02-07T13:10:09.415Z,100032.53
2018-02-07T13:12:37.884Z,100035.12
2018-02-07T13:15:06.292Z,100036.05
2018-02-07T13:17:34.700Z,100040.19
2018-02-07T13:20:03.165Z,100033.83
2018-02-07T13:22:31.588Z,100031.47
2018-02-07T13:24:59.982Z,100034.48
2018-02-07T13:27:28.434Z,100036.19
2018-02-07T13:29:56.872Z,100038.50
2018-02-07T13:32:25.272Z,100031.69
2018-02-07T13:34:53.793Z,100029.81
2018-02-07T13:37:22.192Z,100029.83
2018-02-07T13:39:50.593Z,100037.09
2018-02-07T13:42:19.044Z,100038.28
2018-02-07T13:44:47.447Z,100034.34
2018-02-07T13:47:15.841Z,100038.79
2018-02-07T13:49:44.290Z,100039.95
2018-02-07T13:52:12.714Z,100036.41
2018-02-07T13:54:41.123Z,100041.76
2018-02-07T13:57:09.558Z,100034.58
2018-02-07T13:59:37.949Z,100044.02
2018-02-07T14:02:06.368Z,100039.27
2018-02-07T14:04:34.829Z,100042.12
2018-02-07T14:07:03.256Z,100040.23
2018-02-07T14:09:31.670Z,100046.98
2018-02-07T14:12:00.135Z,100048.31
2018-02-07T14:14:28.570Z,100044.69
2018-02-07T14:16:56.984Z,100049.34
2018-02-07T14:19:25.440Z,100052.53
2018-02-07T14:21:53.861Z,100058.86
2018-02-07T14:24:22.281Z,100053.66
2018-02-07T14:26:50.737Z,100058.16
2018-02-07T14:29:19.152Z,100055.84
2018-02-07T14:31:47.560Z,100055.15
2018-02-07T14:34:16.062Z,100061.48
2018-02-07T14:36:44.478Z,100055.64
2018-02-07T14:39:12.873Z,100051.25
2018-02-07T14:41:41.325Z,100050.37
2018-02-07T14:44:09.736Z,100044.36
2018-02-07T14:46:38.130Z,100045.14
2018-02-07T14:49:06.811Z,100042.62
2018-02-07T14:51:35.184Z,100043.77
2018-02-07T14:54:03.585Z,100035.14
2018-02-07T14:56:32.033Z,100037.02
2018-02-07T14:59:00.437Z,100039.19
2018-02-07T15:01:28.848Z,100031.94
2018-02-07T15:03:57.300Z,100036.27
2018-02-07T15:06:25.713Z,100041.52
2018-02-07T15:08:54.113Z,100039.79
2018-02-07T15:11:22.585Z,100051.23
2018-02-07T15:13:51.000Z,100056.17
2018-02-07T15:16:19.385Z,100053.22
2018-02-07T15:18:47.841Z,100060.37
2018-02-07T15:21:16.229Z,100059.00
2018-02-07T15:23:44.623Z,100057.74
2018-02-07T15:26:13.073Z,100060.03
2018-02-07T15:28:41.479Z,100055.25
2018-02-07T15:31:09.909Z,100062.91
2018-02-07T15:33:38.361Z,100064.94
2018-02-07T15:36:06.746Z,100062.71
2018-02-07T15:38:35.180Z,100062.27
2018-02-07T15:41:03.625Z,100064.48
2018-02-07T15:43:32.037Z,100067.44
2018-02-07T15:46:00.440Z,100061.61
2018-02-07T15:48:28.890Z,100066.49
2018-02-07T15:50:57.306Z,100063.63
2018-02-07T15:53:25.703Z,100069.15
2018-02-07T15:55:54.166Z,100074.77
2018-02-07T15:58:22.604Z,100075.70
2018-02-07T16:00:51.009Z,100079.36
2018-02-07T16:03:19.788Z,100086.84
2018-02-07T16:05:48.208Z,100077.56
2018-02-07T16:08:16.610Z,100079.31
2018-02-07T16:10:45.043Z,100080.36
2018-02-07T16:13:13.456Z,100084.42
2018-02-07T16:18:11.969Z,100094.02
2018-02-07T16:20:40.375Z,100100.17
2018-02-07T16:23:08.783Z,100103.96
2018-02-07T16:25:37.489Z,100105.19
2018-02-07T16:28:05.909Z,100108.37
2018-02-07T16:30:34.322Z,100112.41
2018-02-07T16:33:02.775Z,100110.84
2018-02-07T16:35:31.181Z,100109.59
2018-02-07T16:37:59.589Z,100117.15
2018-02-07T16:40:28.052Z,100121.34
2018-02-07T16:42:56.462Z,100117.11
2018-02-07T16:45:24.857Z,100122.09
2018-02-07T16:47:53.302Z,100114.87
2018-02-07T16:50:21.721Z,100117.75
2018-02-07T16:52:50.118Z,100124.84
2018-02-07T16:55:18.590Z,100120.61
2018-02-07T16:57:47.004Z,100122.67
2018-02-07T17:00:15.413Z,100126.04
2018-02-07T17:02:43.850Z,100126.67
2018-02-07T17:05:12.249Z,100125.88
2018-02-07T17:07:40.633Z,100127.90
2018-02-07T17:10:09.081Z,100130.23
2018-02-07T17:12:37.491Z,100131.91
2018-02-07T17:15:05.886Z,100125.37
2018-02-07T17:17:34.347Z,100119.34
2018-02-07T17:20:02.777Z,100123.48
2018-02-07T17:22:31.164Z,100130.58
2018-02-07T17:24:59.627Z,100127.17
2018-02-07T17:27:28.014Z,100137.77
2018-02-07T17:29:56.409Z,100134.55
2018-02-07T17:32:24.845Z,100132.55
2018-02-07T17:34:54.153Z,100132.87
2018-02-07T17:37:22.552Z,100135.33
2018-02-07T17:39:51.001Z,100134.06
2018-02-07T17:42:19.393Z,100137.08
2018-02-07T17:44:47.796Z,100138.39
2018-02-07T17:47:16.277Z,100140.73
2018-02-07T17:49:44.679Z,100145.41
2018-02-07T17:52:13.069Z,100151.16
2018-02-07T17:54:41.524Z,100153.17
2018-02-07T17:57:09.914Z,100158.13
2018-02-07T17:59:38.316Z,100158.45
2018-02-07T18:02:06.788Z,100153.72
2018-02-07T18:04:35.187Z,100155.70
2018-02-07T18:07:03.597Z,100155.55
2018-02-07T18:09:32.037Z,100157.67
2018-02-07T18:12:00.426Z,100155.72
2018-02-07T18:14:28.831Z,100156.65
2018-02-07T18:16:57.312Z,100154.09
2018-02-07T18:19:25.716Z,100156.36
2018-02-07T18:21:54.102Z,100161.54
2018-02-07T18:24:22.541Z,100163.54
2018-02-07T18:26:50.945Z,100165.75
2018-02-07T18:29:19.333Z,100167.75
2018-02-07T18:31:47.780Z,100168.47
2018-02-07T18:34:16.172Z,100170.62
2018-02-07T18:36:44.557Z,100168.08
2018-02-07T18:39:13.018Z,100169.69
2018-02-07T18:41:41.425Z,100172.80
2018-02-07T18:44:09.818Z,100180.09
2018-02-07T18:46:38.268Z,100175.25
2018-02-07T18:49:06.676Z,100178.27
2018-02-07T18:51:35.065Z,100181.91
2018-02-07T18:54:03.528Z,100194.99
2018-02-07T18:56:31.942Z,100195.89
2018-02-07T18:59:00.333Z,100188.52
2018-02-07T19:01:28.795Z,100192.63
2018-02-07T19:03:57.208Z,100196.99
2018-02-07T19:06:25.609Z,100196.39
2018-02-07T19:08:54.064Z,100200.42
2018-02-07T19:11:22.467Z,100209.50
2018-02-07T19:13:50.857Z,100205.31
2018-02-07T19:16:19.293Z,100209.91
2018-02-07T19:18:47.709Z,100212.27
2018-02-07T19:21:16.097Z,100201.64
2018-02-07T19:23:44.696Z,100213.34
2018-02-07T19:26:13.113Z,100212.38
2018-02-07T19:28:41.521Z,100221.05
2018-02-07T19:31:09.988Z,100220.44
2018-02-07T19:33:38.381Z,100223.58
2018-02-07T19:36:06.788Z,100223.83
2018-02-07T19:38:35.244Z,100225.48
2018-02-07T19:41:03.646Z,100229.09
2018-02-07T19:43:32.053Z,100225.05
2018-02-07T19:46:00.502Z,100225.41
2018-02-07T19:48:28.919Z,100230.52
2018-02-07T19:50:57.327Z,100232.40
2018-02-07T19:53:25.770Z,100230.80
2018-02-07T19:55:54.215Z,100225.64
2018-02-07T19:58:22.628Z,100229.86
2018-02-07T20:00:51.081Z,100240.98
2018-02-07T20:03:19.500Z,100240.28
2018-02-07T20:05:47.906Z,100239.67
2018-02-07T20:08:16.356Z,100234.89
2018-02-07T20:10:44.757Z,100239.05
2018-02-07T20:13:13.167Z,100242.05
2018-02-07T20:15:41.620Z,100247.48
2018-02-07T20:18:10.044Z,100248.52
2018-02-07T20:20:38.433Z,100257.87
2018-02-07T20:23:06.889Z,100252.01
2018-02-07T20:25:35.281Z,100249.52
2018-02-07T20:28:03.692Z,100252.62
2018-02-07T20:30:32.150Z,100254.83
2018-02-07T20:33:00.552Z,100254.63
2018-02-07T20:35:28.982Z,100256.33
2018-02-07T20:37:57.431Z,100251.91
2018-02-07T20:40:25.840Z,100258.03
2018-02-07T20:42:54.228Z,100259.29
2018-02-07T20:45:22.679Z,100264.36
2018-02-07T20:47:51.077Z,100267.02
2018-02-07T20:50:19.480Z,100265.64
2018-02-07T20:52:47.951Z,100268.68
2018-02-07T20:55:16.345Z,100269.44
2018-02-07T20:57:44.759Z,100258.19
2018-02-07T21:00:13.219Z,100269.95
2018-02-07T21:02:41.621Z,100267.98
2018-02-07T21:05:10.014Z,100266.02
2018-02-07T21:07:38.472Z,100271.06
2018-02-07T21:10:07.036Z,100270.98
2018-02-07T21:12:35.452Z,100262.48
2018-02-07T21:15:03.929Z,100266.68
2018-02-07T21:17:32.325Z,100271.68
2018-02-07T21:20:00.732Z,100273.17
2018-02-07T21:22:29.169Z,100281.95
2018-02-07T21:24:57.575Z,100282.03
2018-02-07T21:27:25.973Z,100285.41
2018-02-07T21:29:54.406Z,100284.11
2018-02-07T21:32:22.819Z,100294.37
2018-02-07T21:34:51.209Z,100296.91
2018-02-07T21:37:19.664Z,100297.16
2018-02-07T21:39:48.080Z,100292.14
2018-02-07T21:42:16.504Z,100288.59
2018-02-07T21:44:44.998Z,100293.16
2018-02-07T21:47:13.407Z,100287.41
2018-02-07T21:49:41.801Z,100290.97
2018-02-07T21:52:10.248Z,100281.64
2018-02-07T21:54:38.650Z,100283.53
2018-02-07T21:57:07.049Z,100284.59
2018-02-07T21:59:35.492Z,100285.81
2018-02-07T22:02:03.901Z,100282.33
2018-02-07T22:04:32.312Z,100279.96
2018-02-07T22:07:00.769Z,100281.47
2018-02-07T22:09:29.217Z,100282.73
2018-02-07T22:11:57.612Z,100280.47
2018-02-07T22:14:26.079Z,100274.14
2018-02-07T22:16:54.491Z,100274.42
2018-02-07T22:19:22.899Z,100276.98
2018-02-07T22:21:51.333Z,100283.22
2018-02-07T22:24:19.722Z,100281.20
2018-02-07T22:26:48.129Z,100279.77
2018-02-07T22:29:16.578Z,100277.64
2018-02-07T22:31:44.975Z,100275.58
2018-02-07T22:34:13.365Z,100278.20
2018-02-07T22:36:41.826Z,100278.09
2018-02-07T22:39:10.221Z,100282.38
2018-02-07T22:41:38.609Z,100278.03
2018-02-07T22:44:07.068Z,100278.81
2018-02-07T22:46:35.479Z,100276.03
2018-02-07T22:49:03.904Z,100277.16
2018-02-07T22:51:32.356Z,100278.97
2018-02-07T22:54:00.762Z,100284.73
2018-02-07T22:56:29.173Z,100290.40
2018-02-07T22:58:57.626Z,100285.66
2018-02-07T23:01:26.040Z,100292.40
2018-02-07T23:03:54.448Z,100294.13
2018-02-07T23:06:22.920Z,100298.40
2018-02-07T23:08:51.337Z,100295.13
2018-02-07T23:11:19.739Z,100304.64
2018-02-07T23:13:48.202Z,100301.56
2018-02-07T23:16:16.672Z,100315.16
2018-02-07T23:18:45.074Z,100309.16
2018-02-07T23:21:13.558Z,100307.02
2018-02-07T23:23:41.968Z,100307.02
2018-02-07T23:26:10.369Z,100308.34
2018-02-07T23:28:38.831Z,100308.79
2018-02-07T23:31:07.230Z,100318.04
2018-02-07T23:33:35.630Z,100318.36
2018-02-07T23:36:04.085Z,100314.90
2018-02-07T23:38:32.501Z,100312.18
2018-02-07T23:41:00.910Z,100315.66
2018-02-07T23:43:29.367Z,100316.31
2018-02-07T23:45:57.813Z,100318.22
2018-02-07T23:48:26.210Z,100314.83
2018-02-07T23:50:54.677Z,100321.16
2018-02-07T23:53:23.088Z,100320.16
2018-02-07T23:55:51.490Z,100324.16
2018-02-07T23:58:19.938Z,100322.64
